createdAt,value
2022-12-08T00:01:26.106Z,86.26
2022-12-08T00:03:53.561Z,86.14
2022-12-08T00:06:21.267Z,86.29
2022-12-08T00:08:49.120Z,86.33
2022-12-08T00:11:16.689Z,86.22
2022-12-08T00:13:44.317Z,86.31
2022-12-08T00:16:11.843Z,86.24
2022-12-08T00:18:39.299Z,86.18
2022-12-08T00:21:07.208Z,85.99
2022-12-08T00:23:34.736Z,86.07
2022-12-08T00:26:02.331Z,86.33
2022-12-08T00:28:29.716Z,86.38
2022-12-08T00:30:57.189Z,86.24
2022-12-08T00:33:24.650Z,86.09
2022-12-08T00:35:52.237Z,86.14
2022-12-08T00:38:19.626Z,86.14
2022-12-08T00:40:47.368Z,86.18
2022-12-08T00:43:15.047Z,86.24
2022-12-08T00:45:43.070Z,86.01
2022-12-08T00:48:10.993Z,86.05
2022-12-08T00:50:38.503Z,86.09
2022-12-08T00:53:06.127Z,86.17
2022-12-08T00:55:33.639Z,86.20
2022-12-08T00:58:01.390Z,86.13
2022-12-08T01:00:28.786Z,86.05
2022-12-08T01:02:56.208Z,86.23
2022-12-08T01:05:23.748Z,86.12
2022-12-08T01:07:51.577Z,86.08
2022-12-08T01:10:19.086Z,86.28
2022-12-08T01:12:46.968Z,86.18
2022-12-08T01:15:14.691Z,86.14
2022-12-08T01:17:42.505Z,86.21
2022-12-08T01:20:10.133Z,86.02
2022-12-08T01:22:37.644Z,85.89
2022-12-08T01:25:05.192Z,86.01
2022-12-08T01:27:32.739Z,85.97
2022-12-08T01:30:00.327Z,86.11
2022-12-08T01:32:28.070Z,86.14
2022-12-08T01:34:56.060Z,86.01
2022-12-08T01:37:23.594Z,85.66
2022-12-08T01:39:51.172Z,85.44
2022-12-08T01:42:18.640Z,85.46
2022-12-08T01:44:46.115Z,85.69
2022-12-08T01:47:13.909Z,85.69
2022-12-08T01:49:41.324Z,85.58
2022-12-08T01:52:09.017Z,85.48
2022-12-08T01:54:36.427Z,85.60
2022-12-08T01:57:04.005Z,85.49
2022-12-08T01:59:31.619Z,85.62
2022-12-08T02:01:59.343Z,85.78
2022-12-08T02:04:26.714Z,85.73
2022-12-08T02:06:54.282Z,85.63
2022-12-08T02:09:21.793Z,85.75
2022-12-08T02:11:49.398Z,85.61
2022-12-08T02:14:16.963Z,85.72
2022-12-08T02:16:44.394Z,85.90
2022-12-08T02:21:59.555Z,85.94
2022-12-08T02:24:27.266Z,86.13
2022-12-08T02:26:54.661Z,86.08
2022-12-08T02:29:22.347Z,86.09
2022-12-08T02:31:50.063Z,85.93
2022-12-08T02:34:17.722Z,86.02
2022-12-08T02:36:45.429Z,86.23
2022-12-08T02:39:12.909Z,85.94
2022-12-08T02:41:40.355Z,86.07
2022-12-08T02:44:07.782Z,86.02
2022-12-08T02:46:35.329Z,86.04
2022-12-08T02:49:03.157Z,86.17
2022-12-08T02:51:30.791Z,86.11
2022-12-08T02:53:58.428Z,86.25
2022-12-08T02:56:25.940Z,86.32
2022-12-08T02:58:53.678Z,86.49
2022-12-08T03:01:21.253Z,86.43
2022-12-08T03:03:48.788Z,86.48
2022-12-08T03:06:16.321Z,86.45
2022-12-08T03:08:43.874Z,86.50
2022-12-08T03:11:11.555Z,86.54
2022-12-08T03:13:38.993Z,86.42
2022-12-08T03:16:06.752Z,86.70
2022-12-08T03:18:34.481Z,86.61
2022-12-08T03:21:01.874Z,86.61
2022-12-08T03:23:29.745Z,86.60
2022-12-08T03:25:57.268Z,86.58
2022-12-08T03:28:24.673Z,86.55
2022-12-08T03:30:52.428Z,86.49
2022-12-08T03:33:20.044Z,86.57
2022-12-08T03:35:47.532Z,86.62
2022-12-08T03:38:14.965Z,86.54
2022-12-08T03:40:42.378Z,86.54
2022-12-08T03:43:10.012Z,86.40
2022-12-08T03:45:37.599Z,86.52
2022-12-08T03:48:05.329Z,86.45
2022-12-08T03:50:32.887Z,86.32
2022-12-08T03:53:00.276Z,86.54
2022-12-08T03:55:27.651Z,86.64
2022-12-08T03:57:55.532Z,86.56
2022-12-08T04:00:23.104Z,86.54
2022-12-08T04:02:50.605Z,86.51
2022-12-08T04:05:18.072Z,86.61
2022-12-08T04:07:45.563Z,86.65
2022-12-08T04:10:13.049Z,86.78
2022-12-08T04:12:40.676Z,86.72
2022-12-08T04:15:08.351Z,86.73
2022-12-08T04:17:36.040Z,86.83
2022-12-08T04:20:03.845Z,86.84
2022-12-08T04:22:31.691Z,86.81
2022-12-08T04:24:59.490Z,86.92
2022-12-08T04:27:26.903Z,87.04
2022-12-08T04:29:54.488Z,87.08
2022-12-08T04:32:21.855Z,87.01
2022-12-08T04:34:49.384Z,87.08
2022-12-08T04:37:16.964Z,87.03
2022-12-08T04:39:44.335Z,87.07
2022-12-08T04:42:11.929Z,87.05
2022-12-08T04:44:39.496Z,86.99
2022-12-08T04:47:07.026Z,87.04
2022-12-08T04:49:34.502Z,87.12
2022-12-08T04:52:02.054Z,86.91
2022-12-08T04:54:29.479Z,86.91
2022-12-08T04:56:56.857Z,86.99
2022-12-08T04:59:24.320Z,87.11
2022-12-08T05:01:51.812Z,87.07
2022-12-08T05:04:19.300Z,87.06
2022-12-08T05:06:47.028Z,87.19
2022-12-08T05:09:14.736Z,87.18
2022-12-08T05:11:48.356Z,87.06
2022-12-08T05:14:16.790Z,87.14
2022-12-08T05:16:44.306Z,87.18
2022-12-08T05:19:11.829Z,87.25
2022-12-08T05:21:39.504Z,87.19
2022-12-08T05:24:07.048Z,87.14
2022-12-08T05:26:34.433Z,87.13
2022-12-08T05:29:01.817Z,87.03
2022-12-08T05:31:29.575Z,86.89
2022-12-08T05:34:02.461Z,86.89
2022-12-08T05:36:30.732Z,87.03
2022-12-08T05:38:58.249Z,86.87
2022-12-08T05:41:25.747Z,86.94
2022-12-08T05:43:53.164Z,86.96
2022-12-08T05:46:20.892Z,86.91
2022-12-08T05:48:48.657Z,86.75
2022-12-08T05:51:16.217Z,86.80
2022-12-08T05:53:43.614Z,86.73
2022-12-08T05:56:12.372Z,86.62
2022-12-08T05:58:40.421Z,86.71
2022-12-08T06:01:07.947Z,86.68
2022-12-08T06:03:35.475Z,86.63
2022-12-08T06:06:03.055Z,86.72
2022-12-08T06:08:30.866Z,86.60
2022-12-08T06:10:58.409Z,86.67
2022-12-08T06:13:25.830Z,86.69
2022-12-08T06:15:53.544Z,86.73
2022-12-08T06:18:21.044Z,86.76
2022-12-08T06:20:48.508Z,86.60
2022-12-08T06:23:16.087Z,86.54
2022-12-08T06:25:43.611Z,86.37
2022-12-08T06:28:10.996Z,86.49
2022-12-08T06:30:38.677Z,86.47
2022-12-08T06:33:06.327Z,86.28
2022-12-08T06:35:33.741Z,86.06
2022-12-08T06:38:02.088Z,85.75
2022-12-08T06:40:29.569Z,85.68
2022-12-08T06:42:57.322Z,85.68
2022-12-08T06:45:25.073Z,85.71
2022-12-08T06:47:52.603Z,85.71
2022-12-08T06:50:20.350Z,85.49
2022-12-08T06:52:59.569Z,85.22
2022-12-08T06:55:57.937Z,85.04
2022-12-08T06:58:20.211Z,84.98
2022-12-08T07:00:47.809Z,85.20
2022-12-08T07:03:15.497Z,85.04
2022-12-08T07:05:42.999Z,84.82
2022-12-08T07:08:10.592Z,84.76
2022-12-08T07:10:38.246Z,84.60
2022-12-08T07:13:05.788Z,84.65
2022-12-08T07:15:33.706Z,84.89
2022-12-08T07:18:01.311Z,84.83
2022-12-08T07:20:29.033Z,84.83
2022-12-08T07:22:56.572Z,84.68
2022-12-08T07:25:24.234Z,84.69
2022-12-08T07:27:51.794Z,84.84
2022-12-08T07:30:19.662Z,84.85
2022-12-08T07:32:47.513Z,84.73
2022-12-08T07:35:15.020Z,84.79
2022-12-08T07:37:42.457Z,84.61
2022-12-08T07:40:09.874Z,84.58
2022-12-08T07:42:37.465Z,84.55
2022-12-08T07:45:05.101Z,84.35
2022-12-08T07:47:32.560Z,84.51
2022-12-08T07:50:00.139Z,84.55
2022-12-08T07:52:27.763Z,84.41
2022-12-08T07:54:55.152Z,84.41
2022-12-08T07:57:22.741Z,84.46
2022-12-08T07:59:50.521Z,84.40
2022-12-08T08:02:26.164Z,84.38
2022-12-08T08:04:54.423Z,84.09
2022-12-08T08:07:22.076Z,84.29
2022-12-08T08:09:49.859Z,84.15
2022-12-08T08:12:33.178Z,84.24
2022-12-08T08:15:00.861Z,84.11
2022-12-08T08:17:28.460Z,83.88
2022-12-08T08:19:56.348Z,83.52
2022-12-08T08:22:23.732Z,83.21
2022-12-08T08:24:51.535Z,83.55
2022-12-08T08:27:19.242Z,83.34
2022-12-08T08:29:46.622Z,83.12
2022-12-08T08:32:14.360Z,82.78
2022-12-08T08:34:41.842Z,82.64
2022-12-08T08:37:09.596Z,82.65
2022-12-08T08:39:37.495Z,82.38
2022-12-08T08:42:04.969Z,82.24
2022-12-08T08:44:32.383Z,81.86
2022-12-08T08:47:00.312Z,81.57
2022-12-08T08:49:28.067Z,81.33
2022-12-08T08:51:55.785Z,80.80
2022-12-08T08:54:23.446Z,81.07
2022-12-08T08:56:50.976Z,81.09
2022-12-08T08:59:18.561Z,81.14
2022-12-08T09:01:46.028Z,81.07
2022-12-08T09:04:13.808Z,81.24
2022-12-08T09:06:41.249Z,80.75
2022-12-08T09:09:08.907Z,80.77
2022-12-08T09:11:36.715Z,80.32
2022-12-08T09:14:04.146Z,80.21
2022-12-08T09:16:32.173Z,79.78
2022-12-08T09:19:01.703Z,79.61
2022-12-08T09:21:29.111Z,79.21
2022-12-08T09:23:56.518Z,78.63
2022-12-08T09:26:24.216Z,78.93
2022-12-08T09:28:52.339Z,77.96
2022-12-08T09:31:21.019Z,78.32
2022-12-08T09:33:50.012Z,78.61
2022-12-08T09:36:17.412Z,77.89
2022-12-08T09:38:45.194Z,77.62
2022-12-08T09:41:12.593Z,77.83
2022-12-08T09:43:40.329Z,77.34
2022-12-08T09:46:08.377Z,77.54
2022-12-08T09:48:35.902Z,77.83
2022-12-08T09:51:03.491Z,77.68
2022-12-08T09:53:35.461Z,76.83
2022-12-08T09:56:03.698Z,76.61
2022-12-08T09:58:31.228Z,76.41
2022-12-08T10:00:58.702Z,76.13
2022-12-08T10:03:26.355Z,76.63
2022-12-08T10:05:53.799Z,76.52
2022-12-08T10:08:21.339Z,75.83
2022-12-08T10:10:49.704Z,76.47
2022-12-08T10:13:17.350Z,75.90
2022-12-08T10:15:45.241Z,74.43
2022-12-08T10:18:12.957Z,74.64
2022-12-08T10:20:40.460Z,74.44
2022-12-08T10:23:08.122Z,75.01
2022-12-08T10:25:35.850Z,75.15
2022-12-08T10:28:03.470Z,75.38
2022-12-08T10:30:31.011Z,75.38
2022-12-08T10:32:58.952Z,74.99
2022-12-08T10:35:26.817Z,75.28
2022-12-08T10:37:54.550Z,75.33
2022-12-08T10:40:22.173Z,75.32
2022-12-08T10:42:49.711Z,75.67
2022-12-08T10:45:17.538Z,75.09
2022-12-08T10:47:46.522Z,74.38
2022-12-08T10:50:16.348Z,73.85
2022-12-08T10:52:44.110Z,72.63
2022-12-08T10:55:11.730Z,72.02
2022-12-08T10:57:39.727Z,71.03
2022-12-08T11:00:13.666Z,70.32
2022-12-08T11:02:41.671Z,70.79
2022-12-08T11:05:09.294Z,70.94
2022-12-08T11:07:37.042Z,70.08
2022-12-08T11:10:05.294Z,71.31
2022-12-08T11:12:33.092Z,71.85
2022-12-08T11:15:00.471Z,71.22
2022-12-08T11:17:28.078Z,71.06
2022-12-08T11:19:55.864Z,70.25
2022-12-08T11:22:23.443Z,69.76
2022-12-08T11:24:51.092Z,70.45
2022-12-08T11:27:18.761Z,70.22
2022-12-08T11:29:46.539Z,70.74
2022-12-08T11:32:14.239Z,71.14
2022-12-08T11:34:41.997Z,70.90
2022-12-08T11:37:09.648Z,70.66
2022-12-08T11:39:37.290Z,71.48
2022-12-08T11:42:05.027Z,70.96
2022-12-08T11:44:32.580Z,71.21
2022-12-08T11:47:00.113Z,71.72
2022-12-08T11:49:27.946Z,72.14
2022-12-08T11:51:55.626Z,72.45
2022-12-08T11:54:23.432Z,73.34
2022-12-08T11:56:50.898Z,74.16
2022-12-08T11:59:18.427Z,74.96
2022-12-08T12:01:45.901Z,75.26
2022-12-08T12:04:13.367Z,75.96
2022-12-08T12:06:56.795Z,76.21
2022-12-08T12:09:24.296Z,76.80
2022-12-08T12:11:52.011Z,76.45
2022-12-08T12:14:19.399Z,77.52
2022-12-08T12:16:46.879Z,77.78
2022-12-08T12:19:14.318Z,77.69
2022-12-08T12:21:42.699Z,78.03
2022-12-08T12:24:10.279Z,78.56
2022-12-08T12:26:38.009Z,79.14
2022-12-08T12:29:05.935Z,79.21
2022-12-08T12:31:33.674Z,79.67
2022-12-08T12:34:01.444Z,79.86
2022-12-08T12:36:28.963Z,80.14
2022-12-08T12:38:56.741Z,80.29
2022-12-08T12:41:25.663Z,80.47
2022-12-08T12:43:53.554Z,80.61
2022-12-08T12:46:21.340Z,80.83
2022-12-08T12:48:49.091Z,80.94
2022-12-08T12:51:16.635Z,81.13
2022-12-08T12:53:44.345Z,80.85
2022-12-08T12:56:12.011Z,80.88
2022-12-08T12:58:39.671Z,80.75
2022-12-08T13:01:07.084Z,80.68
2022-12-08T13:03:35.473Z,80.72
2022-12-08T13:06:03.129Z,81.05
2022-12-08T13:08:30.980Z,80.83
2022-12-08T13:10:58.825Z,80.61
2022-12-08T13:13:26.380Z,80.63
2022-12-08T13:15:54.105Z,80.57
2022-12-08T13:18:21.819Z,80.48
2022-12-08T13:20:49.520Z,80.61
2022-12-08T13:23:17.102Z,80.32
2022-12-08T13:25:44.491Z,80.48
2022-12-08T13:28:12.625Z,80.49
2022-12-08T13:30:40.360Z,80.87
2022-12-08T13:33:23.333Z,81.32
2022-12-08T13:35:50.753Z,81.58
2022-12-08T13:38:18.417Z,82.03
2022-12-08T13:40:46.325Z,82.34
2022-12-08T13:43:13.875Z,82.59
2022-12-08T13:46:41.877Z,82.77
2022-12-08T13:49:09.957Z,83.34
2022-12-08T13:57:05.474Z,84.26
2022-12-08T13:59:34.500Z,84.39
2022-12-08T14:02:02.158Z,84.40
2022-12-08T14:07:17.429Z,84.49
2022-12-08T14:09:44.921Z,84.67
2022-12-08T14:12:12.308Z,85.10
2022-12-08T14:15:01.803Z,84.96
2022-12-08T14:17:27.956Z,84.88
2022-12-08T14:19:55.614Z,85.07
2022-12-08T14:22:23.325Z,85.24
2022-12-08T14:24:50.992Z,85.27
2022-12-08T14:27:18.638Z,85.41
2022-12-08T14:29:46.375Z,85.46
2022-12-08T14:32:13.834Z,85.51
2022-12-08T14:34:41.533Z,85.59
2022-12-08T14:37:09.115Z,85.65
2022-12-08T14:39:36.627Z,85.47
2022-12-08T14:42:04.189Z,85.57
2022-12-08T14:44:31.708Z,85.31
2022-12-08T14:47:03.984Z,85.49
2022-12-08T14:49:32.972Z,85.71
2022-12-08T14:52:00.520Z,85.71
2022-12-08T14:54:27.986Z,85.85
2022-12-08T14:56:55.872Z,85.99
2022-12-08T14:59:23.419Z,86.01
2022-12-08T15:01:51.026Z,86.06
2022-12-08T15:04:18.848Z,85.93
2022-12-08T15:06:46.550Z,85.99
2022-12-08T15:09:14.042Z,86.05
2022-12-08T15:11:41.859Z,86.18
2022-12-08T15:14:09.387Z,86.35
2022-12-08T15:16:36.965Z,86.29
2022-12-08T15:19:04.790Z,86.27
2022-12-08T15:21:32.454Z,86.34
2022-12-08T15:24:00.033Z,86.26
2022-12-08T15:26:27.682Z,86.41
2022-12-08T15:28:55.275Z,86.49
2022-12-08T15:31:22.733Z,86.55
2022-12-08T15:33:50.269Z,86.57
2022-12-08T15:36:17.679Z,86.50
2022-12-08T15:38:45.147Z,86.56
2022-12-08T15:41:15.141Z,86.69
2022-12-08T15:43:43.083Z,86.62
2022-12-08T15:46:10.776Z,86.85
2022-12-08T15:48:38.535Z,87.00
2022-12-08T15:51:06.192Z,87.07
2022-12-08T15:53:33.640Z,87.14
2022-12-08T15:56:27.045Z,87.09
2022-12-08T15:58:54.097Z,87.22
2022-12-08T16:01:23.119Z,87.18
2022-12-08T16:09:27.097Z,87.31
2022-12-08T16:12:06.504Z,87.35
2022-12-08T16:17:22.155Z,87.17
2022-12-08T16:19:50.266Z,87.37
2022-12-08T16:22:51.788Z,87.43
2022-12-08T16:25:22.294Z,87.53
2022-12-08T16:30:37.907Z,87.52
2022-12-08T16:33:05.569Z,87.39
2022-12-08T16:35:33.366Z,87.44
2022-12-08T16:38:01.045Z,87.52
2022-12-08T16:40:29.017Z,87.28
2022-12-08T16:42:56.929Z,87.53
2022-12-08T16:45:24.566Z,87.65
2022-12-08T16:47:52.417Z,87.68
2022-12-08T16:50:19.814Z,87.63
2022-12-08T16:52:47.864Z,87.76
2022-12-08T16:55:15.318Z,87.81
2022-12-08T16:57:42.710Z,87.75
2022-12-08T17:00:10.498Z,87.87
2022-12-08T17:02:37.952Z,87.83
2022-12-08T17:05:06.069Z,88.01
2022-12-08T17:07:33.497Z,88.02
2022-12-08T17:10:01.014Z,88.09
2022-12-08T17:12:28.657Z,87.95
2022-12-08T17:14:56.579Z,88.21
2022-12-08T17:17:24.022Z,88.22
2022-12-08T17:19:51.456Z,88.42
2022-12-08T17:22:18.906Z,88.37
2022-12-08T17:24:46.732Z,88.29
2022-12-08T17:27:14.268Z,88.49
2022-12-08T17:29:41.658Z,88.39
2022-12-08T17:32:09.825Z,88.37
2022-12-08T17:34:37.409Z,88.29
2022-12-08T17:37:06.597Z,88.35
2022-12-08T17:39:34.050Z,88.43
2022-12-08T17:42:01.700Z,88.42
2022-12-08T17:44:29.160Z,88.38
2022-12-08T17:46:56.553Z,88.50
2022-12-08T17:49:24.278Z,88.40
2022-12-08T17:51:52.036Z,88.50
2022-12-08T17:54:19.485Z,88.39
2022-12-08T17:56:47.220Z,88.61
2022-12-08T17:59:14.670Z,88.62
2022-12-08T18:01:42.323Z,88.60
2022-12-08T18:04:10.124Z,88.62
2022-12-08T18:06:37.842Z,88.54
2022-12-08T18:09:05.429Z,88.68
2022-12-08T18:11:33.172Z,88.72
2022-12-08T18:14:00.784Z,88.51
2022-12-08T18:16:28.503Z,88.72
2022-12-08T18:18:56.063Z,88.70
2022-12-08T18:21:23.969Z,88.64
2022-12-08T18:23:51.877Z,88.56
2022-12-08T18:26:19.420Z,88.62
2022-12-08T18:28:47.203Z,88.76
2022-12-08T18:31:14.733Z,88.56
2022-12-08T18:33:42.697Z,88.70
2022-12-08T18:36:10.349Z,88.81
2022-12-08T18:38:37.781Z,88.90
2022-12-08T18:41:05.207Z,88.87
2022-12-08T18:43:33.041Z,89.02
2022-12-08T18:46:00.711Z,88.96
2022-12-08T18:48:28.164Z,88.91
2022-12-08T18:50:55.870Z,89.10
2022-12-08T18:53:23.655Z,89.07
2022-12-08T18:55:51.064Z,89.14
2022-12-08T18:58:18.631Z,89.18
2022-12-08T19:00:46.036Z,89.22
2022-12-08T19:03:13.570Z,89.17
2022-12-08T19:05:40.994Z,89.04
2022-12-08T19:08:09.039Z,89.13
2022-12-08T19:10:36.632Z,89.13
2022-12-08T19:13:04.328Z,89.27
2022-12-08T19:15:31.773Z,89.16
2022-12-08T19:17:59.290Z,89.13
2022-12-08T19:20:26.762Z,89.07
2022-12-08T19:22:54.602Z,88.98
2022-12-08T19:25:21.976Z,89.01
2022-12-08T19:27:49.934Z,89.16
2022-12-08T19:30:17.610Z,89.19
2022-12-08T19:32:45.464Z,89.21
2022-12-08T19:35:13.166Z,89.25
2022-12-08T19:37:40.774Z,89.07
2022-12-08T19:40:08.518Z,89.14
2022-12-08T19:42:36.463Z,89.10
2022-12-08T19:45:04.429Z,89.30
2022-12-08T19:47:32.006Z,89.22
2022-12-08T19:49:59.558Z,89.34
2022-12-08T19:52:27.404Z,89.39
2022-12-08T19:54:54.804Z,89.39
2022-12-08T19:57:22.190Z,89.38
2022-12-08T19:59:56.018Z,89.37
2022-12-08T20:02:23.837Z,89.28
2022-12-08T20:04:51.556Z,89.39
2022-12-08T20:07:19.131Z,89.35
2022-12-08T20:09:46.732Z,89.45
2022-12-08T20:12:14.319Z,89.50
2022-12-08T20:14:45.848Z,89.45
2022-12-08T20:17:13.713Z,89.51
2022-12-08T20:19:41.245Z,89.64
2022-12-08T20:22:09.024Z,89.64
2022-12-08T20:24:36.593Z,89.55
2022-12-08T20:27:04.603Z,89.63
2022-12-08T20:29:32.275Z,89.58
2022-12-08T20:32:00.147Z,89.77
2022-12-08T20:34:27.793Z,89.69
2022-12-08T20:36:55.303Z,89.68
2022-12-08T20:39:23.358Z,89.76
2022-12-08T20:41:50.881Z,89.64
2022-12-08T20:44:18.253Z,89.72
2022-12-08T20:46:49.459Z,89.72
2022-12-08T20:49:17.666Z,89.76
2022-12-08T20:51:45.284Z,89.78
2022-12-08T20:54:13.311Z,89.75
2022-12-08T20:56:45.019Z,89.79
2022-12-08T20:59:16.205Z,89.75
2022-12-08T21:01:44.058Z,89.61
2022-12-08T21:04:12.200Z,89.71
2022-12-08T21:06:40.381Z,89.68
2022-12-08T21:09:08.171Z,89.76
2022-12-08T21:11:35.875Z,89.83
2022-12-08T21:14:03.309Z,89.81
2022-12-08T21:16:31.063Z,89.73
2022-12-08T21:18:58.882Z,89.66
2022-12-08T21:21:26.868Z,89.72
2022-12-08T21:23:54.256Z,89.58
2022-12-08T21:26:21.701Z,89.72
2022-12-08T21:28:49.552Z,89.65
2022-12-08T21:31:17.485Z,89.63
2022-12-08T21:33:45.121Z,89.58
2022-12-08T21:36:12.761Z,89.50
2022-12-08T21:38:40.563Z,89.76
2022-12-08T21:41:08.331Z,89.78
2022-12-08T21:43:35.853Z,89.65
2022-12-08T21:46:03.672Z,89.73
2022-12-08T21:48:31.833Z,89.99
2022-12-08T21:50:59.660Z,89.77
2022-12-08T21:53:27.523Z,89.84
2022-12-08T21:55:55.142Z,89.69
2022-12-08T21:58:23.863Z,89.71
2022-12-08T22:00:51.602Z,89.72
2022-12-08T22:03:19.669Z,89.78
2022-12-08T22:05:47.791Z,89.78
2022-12-08T22:08:15.487Z,90.01
2022-12-08T22:10:43.237Z,89.89
2022-12-08T22:13:10.905Z,89.94
2022-12-08T22:15:38.619Z,90.09
2022-12-08T22:18:06.061Z,89.89
2022-12-08T22:20:36.188Z,89.75
2022-12-08T22:23:07.241Z,89.59
2022-12-08T22:25:34.967Z,89.86
2022-12-08T22:28:02.403Z,89.88
2022-12-08T22:30:34.046Z,90.04
2022-12-08T22:33:04.990Z,89.93
2022-12-08T22:35:32.643Z,89.84
2022-12-08T22:38:00.151Z,89.65
2022-12-08T22:40:27.759Z,89.76
2022-12-08T22:42:55.282Z,89.91
2022-12-08T22:45:23.207Z,90.05
2022-12-08T22:47:51.138Z,89.90
2022-12-08T22:50:19.125Z,89.80
2022-12-08T22:52:46.904Z,89.81
2022-12-08T22:55:14.923Z,89.77
2022-12-08T22:57:42.769Z,89.71
2022-12-08T23:00:10.984Z,89.77
2022-12-08T23:02:38.851Z,89.65
2022-12-08T23:05:07.298Z,89.68
2022-12-08T23:07:35.173Z,89.55
2022-12-08T23:10:03.039Z,89.52
2022-12-08T23:12:31.125Z,89.56
2022-12-08T23:14:58.875Z,89.53
2022-12-08T23:17:26.612Z,89.63
2022-12-08T23:19:54.281Z,89.70
2022-12-08T23:22:22.067Z,89.63
2022-12-08T23:24:49.677Z,89.63
2022-12-08T23:27:17.502Z,89.69
2022-12-08T23:29:45.045Z,89.63
2022-12-08T23:32:13.475Z,89.45
2022-12-08T23:34:41.329Z,89.44
2022-12-08T23:37:09.024Z,89.37
2022-12-08T23:39:37.377Z,89.28
2022-12-08T23:42:04.888Z,89.32
2022-12-08T23:44:33.273Z,89.29
2022-12-08T23:47:01.301Z,89.16
2022-12-08T23:49:29.336Z,89.09
2022-12-08T23:51:56.897Z,89.03
2022-12-08T23:54:24.808Z,88.93
2022-12-08T23:56:52.275Z,88.96
2022-12-08T23:59:19.934Z,88.99
